createdAt,value
2023-01-29T00:02:20.289Z,-1.37
2023-01-29T00:07:28.981Z,-1.37
2023-01-29T00:12:38.028Z,-1.37
2023-01-29T00:17:46.997Z,-1.44
2023-01-29T00:22:56.090Z,-1.56
2023-01-29T00:28:05.073Z,-1.69
2023-01-29T00:33:14.043Z,-1.81
2023-01-29T00:38:23.069Z,-1.75
2023-01-29T00:43:32.364Z,-1.75
2023-01-29T00:48:41.238Z,-1.75
2023-01-29T00:53:50.234Z,-1.75
2023-01-29T00:58:59.259Z,-1.75
2023-01-29T01:04:08.152Z,-1.75
2023-01-29T01:09:17.360Z,-1.69
2023-01-29T01:14:26.508Z,-1.5
2023-01-29T01:19:35.626Z,-1.5
2023-01-29T01:24:44.491Z,-1.31
2023-01-29T01:29:53.405Z,-1.25
2023-01-29T01:35:02.427Z,-1.31
2023-01-29T01:40:11.313Z,-1.25
2023-01-29T01:50:18.930Z,-1.12
2023-01-29T01:55:27.709Z,-1.06
2023-01-29T02:00:36.793Z,-1.12
2023-01-29T02:05:45.911Z,-1.06
2023-01-29T02:15:53.237Z,-1.06
2023-01-29T02:21:02.345Z,-1.12
2023-01-29T02:26:11.344Z,-1.12
2023-01-29T02:31:20.473Z,-1.19
2023-01-29T02:36:29.367Z,-1.31
2023-01-29T02:41:38.150Z,-1.44
2023-01-29T02:46:47.048Z,-1.62
2023-01-29T02:51:55.821Z,-1.75
2023-01-29T02:57:04.739Z,-1.94
2023-01-29T03:07:22.661Z,-2.37
2023-01-29T03:12:31.536Z,-2.5
2023-01-29T03:17:40.502Z,-2.56
2023-01-29T03:22:49.505Z,-2.62
2023-01-29T03:27:58.559Z,-2.69
2023-01-29T03:33:07.431Z,-2.62
2023-01-29T03:38:16.344Z,-2.62
2023-01-29T03:43:25.271Z,-2.5
2023-01-29T03:48:34.231Z,-2.56
2023-01-29T03:53:43.211Z,-2.5
2023-01-29T03:58:52.187Z,-2.5
2023-01-29T04:04:01.104Z,-2.37
2023-01-29T04:09:10.122Z,-2.19
2023-01-29T04:14:19.176Z,-2.12
2023-01-29T04:19:28.182Z,-2.06
2023-01-29T04:24:37.246Z,-2
2023-01-29T04:29:46.143Z,-2
2023-01-29T04:34:55.126Z,-2.06
2023-01-29T04:40:04.118Z,-2.12
2023-01-29T04:45:13.158Z,-2.25
2023-01-29T04:50:21.889Z,-2.5
2023-01-29T04:55:30.898Z,-2.62
2023-01-29T05:00:39.806Z,-2.81
2023-01-29T05:05:48.815Z,-3.12
2023-01-29T05:10:57.850Z,-3.31
2023-01-29T05:16:06.713Z,-3.5
2023-01-29T05:21:15.669Z,-3.37
2023-01-29T05:26:24.655Z,-3.31
2023-01-29T05:31:33.667Z,-3.25
2023-01-29T05:36:42.530Z,-3.06
2023-01-29T05:41:51.604Z,-3
2023-01-29T05:47:00.662Z,-2.81
2023-01-29T05:52:09.731Z,-2.69
2023-01-29T05:57:18.723Z,-2.5
2023-01-29T06:02:27.800Z,-2.44
2023-01-29T06:07:36.814Z,-2.44
2023-01-29T06:12:45.792Z,-2.37
2023-01-29T06:17:54.833Z,-2.44
2023-01-29T06:23:04.126Z,-2.37
2023-01-29T06:28:13.158Z,-2.25
2023-01-29T06:33:22.227Z,-2.12
2023-01-29T06:38:31.185Z,-2.06
2023-01-29T06:43:40.180Z,-2.06
2023-01-29T06:48:52.114Z,-2.19
2023-01-29T06:54:00.930Z,-2.25
2023-01-29T06:59:12.664Z,-2.37
2023-01-29T07:04:21.725Z,-2.56
2023-01-29T07:09:30.827Z,-2.62
2023-01-29T07:19:45.846Z,-2.44
2023-01-29T07:24:54.767Z,-2.37
2023-01-29T07:30:03.800Z,-2.37
2023-01-29T07:35:12.889Z,-2.37
2023-01-29T07:40:21.790Z,-2.44
2023-01-29T07:45:30.774Z,-2.56
2023-01-29T07:50:39.833Z,-2.62
2023-01-29T07:55:48.685Z,-2.44
2023-01-29T08:00:57.875Z,-2.44
2023-01-29T08:06:06.918Z,-2.44
2023-01-29T08:11:15.806Z,-2.37
2023-01-29T08:16:24.926Z,-2.25
2023-01-29T08:21:33.958Z,-2.19
2023-01-29T08:26:43.071Z,-1.87
2023-01-29T08:31:52.661Z,-1.44
2023-01-29T08:37:02.874Z,-0.81
2023-01-29T08:42:11.794Z,-0.37
2023-01-29T08:47:20.979Z,0.19
2023-01-29T08:57:39.190Z,0.62
2023-01-29T09:02:48.976Z,0.81
2023-01-29T09:07:58.419Z,1.94
2023-01-29T09:18:19.464Z,2.56
2023-01-29T09:23:28.251Z,1.75
2023-01-29T09:28:36.996Z,0.94
2023-01-29T09:33:46.040Z,1.37
2023-01-29T09:38:54.792Z,1.56
2023-01-29T09:44:03.961Z,1.37
2023-01-29T09:49:12.573Z,1
2023-01-29T09:54:21.521Z,1.44
2023-01-29T09:59:30.169Z,1.56
2023-01-29T10:04:38.937Z,1.19
2023-01-29T10:09:47.540Z,1.12
2023-01-29T10:14:56.513Z,1.25
2023-01-29T10:20:05.444Z,1.19
2023-01-29T10:25:14.948Z,1.44
2023-01-29T10:30:23.465Z,1.44
2023-01-29T10:35:32.568Z,1.44
2023-01-29T10:40:41.351Z,1.44
2023-01-29T10:45:50.172Z,1.5
2023-01-29T10:50:59.520Z,1.44
2023-01-29T11:01:17.630Z,1.56
2023-01-29T11:06:26.602Z,1.44
2023-01-29T11:11:35.875Z,2.12
2023-01-29T11:16:45.756Z,2.25
2023-01-29T11:21:54.858Z,2.06
2023-01-29T11:27:06.306Z,2.37
2023-01-29T11:32:14.834Z,1.75
2023-01-29T11:37:23.837Z,2.12
2023-01-29T11:42:32.659Z,2.31
2023-01-29T11:47:41.616Z,2.25
2023-01-29T11:52:50.291Z,1.62
2023-01-29T11:57:59.296Z,1.62
2023-01-29T12:03:08.434Z,1.87
2023-01-29T12:08:17.522Z,1.62
2023-01-29T12:13:26.685Z,1.31
2023-01-29T12:18:35.486Z,1.69
2023-01-29T12:23:44.455Z,2.25
2023-01-29T12:28:53.523Z,2.62
2023-01-29T12:34:02.583Z,2.75
2023-01-29T12:39:11.611Z,2.44
2023-01-29T12:44:20.455Z,2.12
2023-01-29T12:49:29.673Z,1.69
2023-01-29T12:54:38.535Z,1.75
2023-01-29T12:59:50.571Z,2.06
2023-01-29T13:05:00.136Z,2.56
2023-01-29T13:10:08.489Z,2.44
2023-01-29T13:15:17.601Z,2.81
2023-01-29T13:25:35.857Z,2.44
2023-01-29T13:30:44.634Z,2.12
2023-01-29T13:35:53.819Z,2.5
2023-01-29T13:41:03.031Z,2.5
2023-01-29T13:46:11.931Z,2.56
2023-01-29T13:51:21.463Z,2.31
2023-01-29T13:56:30.068Z,2.5
2023-01-29T14:01:39.004Z,2.81
2023-01-29T14:06:47.634Z,2.06
2023-01-29T14:11:56.135Z,2.12
2023-01-29T14:17:04.957Z,1.87
2023-01-29T14:22:13.861Z,1.75
2023-01-29T14:27:22.792Z,1.56
2023-01-29T14:32:31.829Z,1.69
2023-01-29T14:37:40.870Z,1.81
2023-01-29T14:42:49.880Z,1.81
2023-01-29T14:47:58.722Z,1.75
2023-01-29T14:53:07.694Z,1.75
2023-01-29T14:58:16.693Z,1.5
2023-01-29T15:03:25.664Z,1.19
2023-01-29T15:08:34.628Z,1.12
2023-01-29T15:13:43.641Z,1.12
2023-01-29T15:18:52.418Z,0.94
2023-01-29T15:24:01.133Z,0.75
2023-01-29T15:29:10.091Z,0.62
2023-01-29T15:34:18.945Z,0.44
2023-01-29T15:39:27.812Z,0.25
2023-01-29T15:44:36.777Z,0.06
2023-01-29T15:49:45.567Z,-0.13
2023-01-29T15:54:54.614Z,-0.37
2023-01-29T16:00:03.451Z,-0.62
2023-01-29T16:05:12.279Z,-0.88
2023-01-29T16:10:21.251Z,-1.06
2023-01-29T16:15:30.427Z,-1.19
2023-01-29T16:20:39.283Z,-1.37
2023-01-29T16:25:48.225Z,-1.56
2023-01-29T16:30:57.260Z,-1.75
2023-01-29T16:36:06.133Z,-1.94
2023-01-29T16:41:15.103Z,-2
2023-01-29T16:46:24.051Z,-2
2023-01-29T16:51:33.018Z,-2
2023-01-29T16:56:42.028Z,-2
2023-01-29T17:01:51.115Z,-2.06
2023-01-29T17:07:00.030Z,-2.06
2023-01-29T17:12:09.442Z,-2.06
2023-01-29T17:17:18.506Z,-2.12
2023-01-29T17:22:27.391Z,-2.25
2023-01-29T17:27:36.507Z,-2.31
2023-01-29T17:32:47.461Z,-2.5
2023-01-29T17:37:54.449Z,-2.62
2023-01-29T17:43:03.355Z,-2.62
2023-01-29T17:48:12.515Z,-2.75
2023-01-29T17:53:21.375Z,-2.87
2023-01-29T17:58:30.486Z,-2.87
2023-01-29T18:03:39.499Z,-2.81
2023-01-29T18:08:48.442Z,-2.75
2023-01-29T18:28:52.224Z,-2.75
2023-01-29T18:34:01.302Z,-2.75
2023-01-29T18:39:10.676Z,-2.81
2023-01-29T18:44:19.680Z,-2.62
2023-01-29T18:49:28.803Z,-2.44
2023-01-29T18:54:37.711Z,-2.25
2023-01-29T18:59:47.044Z,-2.31
2023-01-29T19:04:56.402Z,-2.5
2023-01-29T19:15:03.339Z,-2.87
2023-01-29T19:20:12.410Z,-3
2023-01-29T19:25:21.480Z,-3.12
2023-01-29T19:30:30.320Z,-3.12
2023-01-29T19:35:39.291Z,-3.12
2023-01-29T19:40:48.237Z,-3.19
2023-01-29T19:45:57.402Z,-3.31
2023-01-29T19:51:06.333Z,-3.44
2023-01-29T19:56:15.421Z,-3.56
2023-01-29T20:01:24.414Z,-3.62
2023-01-29T20:06:33.317Z,-3.62
2023-01-29T20:11:42.348Z,-3.69
2023-01-29T20:16:51.276Z,-3.75
2023-01-29T20:22:00.486Z,-3.75
2023-01-29T20:27:09.473Z,-3.75
2023-01-29T20:32:18.386Z,-3.75
2023-01-29T20:37:27.359Z,-3.69
2023-01-29T20:42:36.473Z,-3.62
2023-01-29T20:47:45.491Z,-3.62
2023-01-29T20:52:54.623Z,-3.69
2023-01-29T20:58:05.018Z,-3.69
2023-01-29T21:03:12.832Z,-3.69
2023-01-29T21:08:21.730Z,-3.56
2023-01-29T21:13:30.721Z,-3.31
2023-01-29T21:28:37.641Z,-2.69
2023-01-29T21:38:55.920Z,-2.81
2023-01-29T21:44:04.864Z,-2.94
2023-01-29T21:49:13.888Z,-2.94
2023-01-29T21:54:22.938Z,-3
2023-01-29T21:59:31.974Z,-3
2023-01-29T22:09:50.223Z,-3
2023-01-29T22:14:59.317Z,-3
2023-01-29T22:20:08.260Z,-3.06
2023-01-29T22:25:20.233Z,-3.06
2023-01-29T22:30:29.352Z,-3.12
2023-01-29T22:35:38.296Z,-3.19
2023-01-29T22:40:47.549Z,-2.81
2023-01-29T22:45:56.625Z,-2.31
2023-01-29T22:51:05.507Z,-1.94
2023-01-29T22:56:14.649Z,-1.75
2023-01-29T23:01:23.981Z,-1.5
2023-01-29T23:06:33.102Z,-1.31
2023-01-29T23:11:42.010Z,-1.06
2023-01-29T23:16:51.098Z,-1
2023-01-29T23:22:00.127Z,-0.94
2023-01-29T23:27:09.083Z,-0.88
2023-01-29T23:32:18.217Z,-0.81
2023-01-29T23:37:27.312Z,-0.75
2023-01-29T23:42:39.286Z,-0.75
2023-01-29T23:47:48.376Z,-0.75
2023-01-29T23:52:57.484Z,-0.69
2023-01-29T23:58:06.549Z,-0.62
